createdAt,value
2023-05-05T00:02:04.145Z,23.03
2023-05-05T00:04:30.543Z,23.02
2023-05-05T00:06:57.333Z,23.02
2023-05-05T00:09:23.752Z,23.02
2023-05-05T00:11:50.144Z,23.03
2023-05-05T00:14:16.828Z,23.04
2023-05-05T00:16:43.265Z,23.03
2023-05-05T00:19:10.357Z,23.03
2023-05-05T00:21:36.981Z,23.04
2023-05-05T00:24:03.469Z,23.05
2023-05-05T00:26:29.856Z,23.04
2023-05-05T00:28:56.319Z,23.04
2023-05-05T00:31:23.755Z,23.05
2023-05-05T00:33:50.475Z,23.06
2023-05-05T00:36:16.862Z,23.05
2023-05-05T00:38:43.286Z,23.05
2023-05-05T00:41:09.722Z,23.05
2023-05-05T00:43:36.125Z,23.04
2023-05-05T00:46:04.617Z,23.05
2023-05-05T00:48:31.613Z,23.05
2023-05-05T00:50:58.677Z,23.06
2023-05-05T00:53:25.188Z,23.07
2023-05-05T00:55:52.056Z,23.07
2023-05-05T00:58:18.414Z,23.07
2023-05-05T01:00:45.398Z,23.08
2023-05-05T01:03:15.378Z,23.07
2023-05-05T01:06:02.696Z,23.09
2023-05-05T01:08:42.780Z,23.11
2023-05-05T01:11:21.020Z,23.11
2023-05-05T01:13:53.324Z,23.11
2023-05-05T01:16:27.561Z,23.09
2023-05-05T01:18:57.048Z,23.08
2023-05-05T01:21:29.716Z,23.09
2023-05-05T01:24:14.901Z,23.10
2023-05-05T01:26:51.307Z,23.11
2023-05-05T01:29:36.312Z,23.10
2023-05-05T01:32:09.680Z,23.08
2023-05-05T01:34:39.623Z,23.08
2023-05-05T01:37:13.798Z,23.10
2023-05-05T01:39:41.501Z,23.10
2023-05-05T01:42:14.984Z,23.11
2023-05-05T01:44:44.790Z,23.11
2023-05-05T01:47:21.797Z,23.10
2023-05-05T01:49:48.788Z,23.13
2023-05-05T01:52:15.354Z,23.11
2023-05-05T01:54:42.967Z,23.13
2023-05-05T01:57:10.088Z,23.12
2023-05-05T01:59:38.002Z,23.12
2023-05-05T02:02:05.193Z,23.13
2023-05-05T02:04:33.078Z,23.13
2023-05-05T02:07:01.249Z,23.12
2023-05-05T02:09:28.527Z,23.13
2023-05-05T02:11:57.138Z,23.16
2023-05-05T02:14:25.038Z,23.18
2023-05-05T02:16:52.021Z,23.20
2023-05-05T02:19:19.260Z,23.22
2023-05-05T02:21:45.726Z,23.21
2023-05-05T02:24:12.256Z,23.18
2023-05-05T02:26:39.908Z,23.16
2023-05-05T02:29:45.070Z,23.15
2023-05-05T02:32:16.985Z,23.14
2023-05-05T02:34:45.203Z,23.18
2023-05-05T02:37:14.329Z,23.18
2023-05-05T02:39:47.273Z,23.16
2023-05-05T02:42:16.075Z,23.18
2023-05-05T02:44:42.843Z,23.16
2023-05-05T02:47:09.726Z,23.18
2023-05-05T02:49:36.647Z,23.16
2023-05-05T02:52:03.064Z,23.15
2023-05-05T02:54:31.357Z,23.16
2023-05-05T02:56:58.603Z,23.15
2023-05-05T02:59:32.957Z,23.16
2023-05-05T03:02:18.150Z,23.16
2023-05-05T03:04:54.895Z,23.18
2023-05-05T03:07:26.397Z,23.17
2023-05-05T03:09:57.769Z,23.16
2023-05-05T03:12:27.863Z,23.16
2023-05-05T03:14:54.719Z,23.15
2023-05-05T03:17:22.303Z,23.16
2023-05-05T03:19:49.372Z,23.14
2023-05-05T03:22:16.186Z,23.15
2023-05-05T03:24:42.548Z,23.16
2023-05-05T03:27:08.980Z,23.15
2023-05-05T03:29:35.460Z,23.14
2023-05-05T03:32:01.993Z,23.14
2023-05-05T03:34:28.404Z,23.15
2023-05-05T03:36:54.800Z,23.14
2023-05-05T03:39:21.238Z,23.15
2023-05-05T03:41:47.606Z,23.16
2023-05-05T03:44:13.914Z,23.15
2023-05-05T03:46:40.232Z,23.15
2023-05-05T03:49:07.168Z,23.14
2023-05-05T03:51:33.553Z,23.16
2023-05-05T03:53:59.902Z,23.17
2023-05-05T03:56:26.636Z,23.19
2023-05-05T03:58:53.024Z,23.20
2023-05-05T04:01:19.397Z,23.20
2023-05-05T04:03:46.081Z,23.19
2023-05-05T04:06:12.528Z,23.19
2023-05-05T04:08:38.932Z,23.18
2023-05-05T04:11:05.334Z,23.19
2023-05-05T04:13:31.811Z,23.19
2023-05-05T04:15:59.698Z,23.20
2023-05-05T04:18:26.230Z,23.20
2023-05-05T04:20:52.590Z,23.20
2023-05-05T04:23:19.059Z,23.20
2023-05-05T04:25:45.669Z,23.21
2023-05-05T04:28:12.070Z,23.21
2023-05-05T04:30:38.455Z,23.21
2023-05-05T04:33:04.822Z,23.20
2023-05-05T04:35:31.323Z,23.21
2023-05-05T04:37:57.669Z,23.22
2023-05-05T04:40:24.796Z,23.21
2023-05-05T04:42:51.178Z,23.21
2023-05-05T04:45:17.656Z,23.20
2023-05-05T04:47:44.111Z,23.21
2023-05-05T04:50:11.374Z,23.21
2023-05-05T04:52:37.836Z,23.20
2023-05-05T04:55:04.683Z,23.19
2023-05-05T04:57:31.426Z,23.22
2023-05-05T04:59:59.560Z,23.23
2023-05-05T05:02:27.008Z,23.25
2023-05-05T05:04:53.444Z,23.24
2023-05-05T05:07:19.800Z,23.23
2023-05-05T05:09:46.222Z,23.23
2023-05-05T05:12:12.607Z,23.23
2023-05-05T05:14:39.310Z,23.23
2023-05-05T05:17:06.371Z,23.23
2023-05-05T05:19:32.858Z,23.23
2023-05-05T05:21:59.215Z,23.23
2023-05-05T05:24:25.702Z,23.23
2023-05-05T05:26:52.107Z,23.24
2023-05-05T05:29:20.494Z,23.24
2023-05-05T05:31:46.878Z,23.25
2023-05-05T05:34:13.262Z,23.24
2023-05-05T05:36:39.662Z,23.24
2023-05-05T05:39:06.362Z,23.24
2023-05-05T05:41:32.747Z,23.24
2023-05-05T05:43:59.171Z,23.24
2023-05-05T05:46:25.594Z,23.24
2023-05-05T05:48:51.928Z,23.23
2023-05-05T05:51:18.326Z,23.24
2023-05-05T05:53:44.691Z,23.23
2023-05-05T05:56:11.135Z,23.23
2023-05-05T05:58:37.479Z,23.22
2023-05-05T06:01:05.015Z,23.21
2023-05-05T06:03:31.517Z,23.21
2023-05-05T06:05:59.019Z,23.21
2023-05-05T06:08:26.445Z,23.21
2023-05-05T06:10:53.071Z,23.20
2023-05-05T06:13:19.498Z,23.22
2023-05-05T06:15:46.190Z,23.23
2023-05-05T06:18:12.672Z,23.24
2023-05-05T06:20:39.231Z,23.25
2023-05-05T06:23:05.839Z,23.26
2023-05-05T06:25:32.208Z,23.28
2023-05-05T06:27:58.602Z,23.31
2023-05-05T06:30:26.138Z,23.31
2023-05-05T06:32:54.255Z,23.33
2023-05-05T06:35:20.996Z,23.33
2023-05-05T06:37:47.359Z,23.35
2023-05-05T06:40:13.753Z,23.33
2023-05-05T06:42:40.136Z,23.34
2023-05-05T06:45:06.702Z,23.33
2023-05-05T06:47:33.199Z,23.32
2023-05-05T06:49:59.534Z,23.33
2023-05-05T06:52:26.196Z,23.32
2023-05-05T06:54:52.518Z,23.33
2023-05-05T06:57:18.960Z,23.31
2023-05-05T06:59:45.376Z,23.31
2023-05-05T07:02:11.720Z,23.31
2023-05-05T07:04:38.283Z,23.29
2023-05-05T07:07:04.629Z,23.28
2023-05-05T07:09:31.125Z,23.31
2023-05-05T07:11:57.568Z,23.35
2023-05-05T07:14:24.496Z,23.39
2023-05-05T07:16:51.554Z,23.38
2023-05-05T07:19:18.142Z,23.36
2023-05-05T07:21:44.618Z,23.35
2023-05-05T07:24:11.005Z,23.35
2023-05-05T07:26:37.528Z,23.36
2023-05-05T07:29:05.620Z,23.35
2023-05-05T07:31:31.996Z,23.34
2023-05-05T07:33:58.435Z,23.34
2023-05-05T07:36:24.907Z,23.34
2023-05-05T07:38:51.344Z,23.33
2023-05-05T07:41:18.458Z,23.32
2023-05-05T07:43:44.893Z,23.33
2023-05-05T07:46:11.559Z,23.33
2023-05-05T07:48:39.137Z,23.33
2023-05-05T07:51:05.519Z,23.33
2023-05-05T07:53:32.002Z,23.34
2023-05-05T07:55:58.474Z,23.34
2023-05-05T07:58:24.882Z,23.35
2023-05-05T08:00:51.352Z,23.36
2023-05-05T08:03:19.941Z,23.37
2023-05-05T08:05:46.909Z,23.37
2023-05-05T08:08:13.315Z,23.38
2023-05-05T08:10:40.119Z,23.39
2023-05-05T08:13:06.562Z,23.39
2023-05-05T08:15:32.983Z,23.39
2023-05-05T08:17:59.477Z,23.41
2023-05-05T08:20:28.058Z,23.40
2023-05-05T08:22:54.524Z,23.40
2023-05-05T08:25:21.001Z,23.39
2023-05-05T08:27:47.368Z,23.41
2023-05-05T08:30:14.404Z,23.41
2023-05-05T08:32:41.053Z,23.42
2023-05-05T08:35:08.221Z,23.41
2023-05-05T08:37:34.926Z,23.40
2023-05-05T08:40:01.408Z,23.42
2023-05-05T08:42:37.023Z,23.43
2023-05-05T08:45:06.138Z,23.44
2023-05-05T08:47:32.933Z,23.44
2023-05-05T08:49:59.572Z,23.43
2023-05-05T08:52:27.951Z,23.44
2023-05-05T08:55:02.083Z,23.43
2023-05-05T08:57:32.448Z,23.45
2023-05-05T08:59:59.870Z,23.44
2023-05-05T09:02:28.494Z,23.44
2023-05-05T09:04:55.040Z,23.44
2023-05-05T09:07:21.509Z,23.47
2023-05-05T09:09:48.199Z,23.40
2023-05-05T09:12:15.882Z,23.35
2023-05-05T09:14:42.227Z,23.32
2023-05-05T09:17:21.784Z,23.33
2023-05-05T09:20:04.727Z,23.33
2023-05-05T09:22:35.305Z,23.34
2023-05-05T09:25:02.005Z,23.34
2023-05-05T09:27:28.402Z,23.31
2023-05-05T09:29:55.186Z,23.30
2023-05-05T09:32:22.294Z,23.29
2023-05-05T09:35:07.076Z,23.28
2023-05-05T09:37:33.860Z,23.26
2023-05-05T09:40:01.169Z,23.25
2023-05-05T09:42:27.739Z,23.24
2023-05-05T09:44:54.285Z,23.22
2023-05-05T09:47:29.642Z,23.22
2023-05-05T09:49:57.973Z,23.21
2023-05-05T09:52:24.418Z,23.21
2023-05-05T09:54:55.935Z,23.19
2023-05-05T09:57:32.830Z,23.18
2023-05-05T10:00:00.559Z,23.17
2023-05-05T10:02:33.147Z,23.17
2023-05-05T10:05:04.496Z,23.17
2023-05-05T10:07:30.886Z,23.15
2023-05-05T10:09:57.333Z,23.13
2023-05-05T10:12:24.955Z,23.12
2023-05-05T10:14:52.758Z,23.11
2023-05-05T10:17:21.151Z,23.12
2023-05-05T10:19:48.804Z,23.10
2023-05-05T10:22:15.677Z,23.09
2023-05-05T10:24:56.312Z,23.08
2023-05-05T10:27:23.670Z,23.07
2023-05-05T10:30:06.258Z,23.06
2023-05-05T10:35:08.990Z,23.06
2023-05-05T10:37:37.393Z,23.06
2023-05-05T10:40:04.523Z,23.07
2023-05-05T10:42:32.203Z,23.07
2023-05-05T10:44:58.633Z,23.06
2023-05-05T10:47:26.107Z,23.05
2023-05-05T10:50:11.223Z,23.03
2023-05-05T10:52:56.306Z,23.02
2023-05-05T10:55:35.244Z,23.01
2023-05-05T10:58:01.736Z,23.01
2023-05-05T11:00:40.213Z,23.03
2023-05-05T11:03:16.163Z,23.02
2023-05-05T11:06:01.454Z,23.02
2023-05-05T11:08:27.959Z,23.01
2023-05-05T11:10:54.455Z,22.99
2023-05-05T11:13:21.259Z,23.03
2023-05-05T11:15:48.398Z,23.03
2023-05-05T11:18:27.091Z,23.03
2023-05-05T11:21:03.648Z,23.02
2023-05-05T11:23:30.668Z,23.03
2023-05-05T11:25:57.751Z,23.02
2023-05-05T11:28:25.523Z,23.03
2023-05-05T11:30:55.066Z,23.04
2023-05-05T11:33:38.249Z,23.02
2023-05-05T11:36:06.981Z,23.03
2023-05-05T11:38:39.997Z,23.02
2023-05-05T11:41:06.395Z,23.02
2023-05-05T11:43:33.419Z,23.02
2023-05-05T11:46:13.138Z,23.03
2023-05-05T11:48:46.231Z,23.02
2023-05-05T11:51:16.334Z,23.01
2023-05-05T11:53:46.488Z,23.02
2023-05-05T11:56:18.834Z,23.00
2023-05-05T11:58:45.544Z,22.98
2023-05-05T12:01:13.384Z,22.98
2023-05-05T12:03:40.086Z,22.98
2023-05-05T12:06:07.492Z,22.98
2023-05-05T12:08:37.493Z,22.99
2023-05-05T12:11:04.478Z,22.99
2023-05-05T12:13:30.895Z,22.98
2023-05-05T12:15:57.340Z,23.00
2023-05-05T12:18:23.775Z,22.99
2023-05-05T12:20:51.129Z,22.99
2023-05-05T12:23:17.577Z,22.98
2023-05-05T12:25:45.707Z,22.99
2023-05-05T12:28:12.162Z,23.00
2023-05-05T12:30:38.676Z,22.99
2023-05-05T12:33:06.225Z,23.00
2023-05-05T12:35:33.355Z,23.00
2023-05-05T12:37:59.983Z,22.98
2023-05-05T12:40:54.651Z,22.97
2023-05-05T12:43:34.176Z,22.97
2023-05-05T12:46:04.697Z,22.96
2023-05-05T12:48:31.629Z,22.95
2023-05-05T12:51:11.245Z,22.96
2023-05-05T12:53:37.659Z,22.96
2023-05-05T12:56:04.101Z,22.96
2023-05-05T12:58:46.406Z,22.95
2023-05-05T13:01:12.865Z,22.96
2023-05-05T13:03:39.281Z,22.97
2023-05-05T13:06:21.537Z,22.96
2023-05-05T13:08:48.217Z,22.97
2023-05-05T13:11:14.588Z,22.97
2023-05-05T13:13:42.097Z,22.98
2023-05-05T13:16:08.848Z,22.97
2023-05-05T13:18:47.884Z,22.97
2023-05-05T13:21:14.417Z,22.97
2023-05-05T13:23:44.286Z,22.95
2023-05-05T13:26:11.028Z,22.96
2023-05-05T13:28:37.350Z,22.96
2023-05-05T13:31:03.703Z,22.95
2023-05-05T13:33:32.856Z,22.96
2023-05-05T13:35:59.231Z,22.98
2023-05-05T13:38:25.566Z,22.97
2023-05-05T13:40:51.992Z,22.97
2023-05-05T13:43:19.552Z,22.98
2023-05-05T13:45:45.952Z,22.97
2023-05-05T13:48:12.287Z,22.98
2023-05-05T13:50:38.895Z,22.96
2023-05-05T13:53:05.406Z,22.97
2023-05-05T13:55:31.841Z,22.97
2023-05-05T13:57:58.247Z,22.96
2023-05-05T14:00:24.599Z,22.97
2023-05-05T14:02:51.024Z,22.95
2023-05-05T14:05:17.465Z,22.95
2023-05-05T14:07:43.792Z,22.93
2023-05-05T14:10:10.261Z,22.95
2023-05-05T14:12:36.593Z,22.97
2023-05-05T14:15:03.081Z,22.97
2023-05-05T14:17:29.472Z,22.98
2023-05-05T14:19:56.300Z,22.98
2023-05-05T14:22:22.618Z,22.97
2023-05-05T14:24:48.978Z,22.97
2023-05-05T14:27:15.516Z,22.98
2023-05-05T14:29:41.957Z,22.98
2023-05-05T14:32:08.452Z,22.97
2023-05-05T14:34:34.820Z,22.96
2023-05-05T14:37:01.295Z,22.95
2023-05-05T14:39:27.683Z,22.97
2023-05-05T14:41:54.052Z,22.95
2023-05-05T14:44:20.600Z,22.95
2023-05-05T14:46:48.023Z,22.94
2023-05-05T14:49:16.102Z,22.92
2023-05-05T14:51:42.759Z,22.91
2023-05-05T14:54:20.447Z,22.92
2023-05-05T14:56:53.477Z,22.92
2023-05-05T14:59:19.789Z,22.92
2023-05-05T15:01:46.167Z,22.90
2023-05-05T15:04:12.555Z,22.90
2023-05-05T15:06:39.057Z,22.90
2023-05-05T15:09:05.542Z,22.89
2023-05-05T15:11:31.905Z,22.90
2023-05-05T15:13:58.300Z,22.85
2023-05-05T15:16:24.712Z,22.84
2023-05-05T15:18:51.435Z,22.84
2023-05-05T15:21:17.775Z,22.82
2023-05-05T15:23:44.212Z,22.80
2023-05-05T15:26:10.604Z,22.80
2023-05-05T15:28:37.715Z,22.82
2023-05-05T15:31:05.904Z,22.82
2023-05-05T15:33:32.344Z,22.83
2023-05-05T15:35:59.122Z,22.79
2023-05-05T15:38:25.705Z,22.81
2023-05-05T15:40:52.127Z,22.80
2023-05-05T15:43:18.656Z,22.77
2023-05-05T15:45:45.859Z,22.77
2023-05-05T15:48:12.333Z,22.75
2023-05-05T15:50:38.770Z,22.73
2023-05-05T15:53:05.237Z,22.75
2023-05-05T15:55:31.806Z,22.74
2023-05-05T15:57:58.147Z,22.73
2023-05-05T16:00:25.710Z,22.69
2023-05-05T16:02:52.178Z,22.67
2023-05-05T16:05:20.189Z,22.67
2023-05-05T16:07:48.540Z,22.63
2023-05-05T16:10:15.084Z,22.63
2023-05-05T16:12:41.548Z,22.59
2023-05-05T16:15:08.425Z,22.56
2023-05-05T16:17:34.987Z,22.57
2023-05-05T16:20:01.693Z,22.54
2023-05-05T16:22:28.060Z,22.55
2023-05-05T16:24:54.454Z,22.53
2023-05-05T16:27:20.855Z,22.51
2023-05-05T16:29:47.207Z,22.53
2023-05-05T16:32:13.615Z,22.50
2023-05-05T16:34:40.018Z,22.49
2023-05-05T16:37:06.666Z,22.47
2023-05-05T16:39:33.972Z,22.43
2023-05-05T16:42:00.366Z,22.42
2023-05-05T16:44:26.754Z,22.42
2023-05-05T16:46:53.092Z,22.37
2023-05-05T16:49:19.504Z,22.37
2023-05-05T16:51:45.853Z,22.38
2023-05-05T16:54:12.272Z,22.40
2023-05-05T16:56:38.662Z,22.37
2023-05-05T16:59:05.077Z,22.37
2023-05-05T17:01:32.015Z,22.35
2023-05-05T17:04:02.269Z,22.34
2023-05-05T17:06:32.465Z,22.31
2023-05-05T17:08:59.146Z,22.29
2023-05-05T17:11:25.917Z,22.31
2023-05-05T17:13:52.364Z,22.30
2023-05-05T17:16:18.764Z,22.29
2023-05-05T17:18:45.202Z,22.28
2023-05-05T17:21:11.520Z,22.28
2023-05-05T17:23:37.830Z,22.29
2023-05-05T17:26:05.222Z,22.26
2023-05-05T17:28:31.671Z,22.24
2023-05-05T17:30:59.984Z,22.21
2023-05-05T17:33:26.452Z,22.18
2023-05-05T17:35:52.900Z,22.18
2023-05-05T17:38:19.349Z,22.20
2023-05-05T17:40:45.685Z,22.21
2023-05-05T17:43:12.170Z,22.22
2023-05-05T17:45:38.591Z,22.22
2023-05-05T17:48:05.316Z,22.22
2023-05-05T17:50:31.807Z,22.24
2023-05-05T17:52:58.187Z,22.23
2023-05-05T17:55:24.557Z,22.22
2023-05-05T17:57:50.979Z,22.27
2023-05-05T18:00:18.278Z,22.28
2023-05-05T18:02:44.726Z,22.29
2023-05-05T18:05:11.456Z,22.29
2023-05-05T18:07:38.679Z,22.29
2023-05-05T18:10:06.566Z,22.29
2023-05-05T18:12:33.082Z,22.28
2023-05-05T18:14:59.394Z,22.30
2023-05-05T18:17:26.245Z,22.30
2023-05-05T18:19:52.586Z,22.28
2023-05-05T18:22:18.880Z,22.30
2023-05-05T18:24:46.501Z,22.29
2023-05-05T18:27:12.861Z,22.27
2023-05-05T18:29:39.268Z,22.29
2023-05-05T18:32:06.404Z,22.31
2023-05-05T18:34:32.794Z,22.32
2023-05-05T18:37:00.584Z,22.31
2023-05-05T18:39:27.007Z,22.33
2023-05-05T18:41:53.371Z,22.33
2023-05-05T18:44:20.250Z,22.31
2023-05-05T18:46:49.778Z,22.29
2023-05-05T18:49:16.367Z,22.29
2023-05-05T18:51:43.377Z,22.27
2023-05-05T18:54:09.826Z,22.25
2023-05-05T18:56:36.422Z,22.23
2023-05-05T18:59:02.860Z,22.22
2023-05-05T19:01:29.280Z,22.26
2023-05-05T19:03:55.733Z,22.26
2023-05-05T19:06:22.169Z,22.28
2023-05-05T19:08:48.536Z,22.29
2023-05-05T19:11:15.190Z,22.27
2023-05-05T19:13:41.812Z,22.27
2023-05-05T19:16:08.316Z,22.27
2023-05-05T19:18:34.701Z,22.26
2023-05-05T19:21:01.654Z,22.27
2023-05-05T19:23:28.061Z,22.25
2023-05-05T19:25:54.576Z,22.27
2023-05-05T19:28:21.382Z,22.27
2023-05-05T19:30:48.751Z,22.27
2023-05-05T19:33:15.714Z,22.25
2023-05-05T19:35:42.184Z,22.25
2023-05-05T19:38:10.241Z,22.23
2023-05-05T19:40:39.484Z,22.24
2023-05-05T19:43:05.931Z,22.22
2023-05-05T19:45:33.558Z,22.20
2023-05-05T19:48:00.756Z,22.19
2023-05-05T19:50:27.320Z,22.17
2023-05-05T19:52:54.610Z,22.13
2023-05-05T19:55:22.029Z,22.12
2023-05-05T19:57:48.382Z,22.13
2023-05-05T20:00:14.834Z,22.16
2023-05-05T20:02:41.759Z,22.17
2023-05-05T20:05:08.380Z,22.15
2023-05-05T20:07:34.804Z,22.15
2023-05-05T20:10:01.172Z,22.13
2023-05-05T20:12:27.595Z,22.10
2023-05-05T20:17:21.593Z,22.12
2023-05-05T20:19:48.024Z,22.15
2023-05-05T20:22:14.397Z,22.13
2023-05-05T20:24:40.782Z,22.11
2023-05-05T20:29:33.541Z,22.08
2023-05-05T20:32:00.827Z,22.08
2023-05-05T20:34:27.676Z,22.09
2023-05-05T20:36:54.369Z,22.10
2023-05-05T20:39:21.240Z,22.10
2023-05-05T20:41:48.517Z,22.10
2023-05-05T20:44:14.872Z,22.07
2023-05-05T20:46:41.534Z,22.06
2023-05-05T20:49:07.973Z,22.05
2023-05-05T20:51:35.102Z,22.04
2023-05-05T20:54:02.181Z,22.02
2023-05-05T20:56:28.680Z,22.01
2023-05-05T20:58:56.603Z,22.00
2023-05-05T21:01:23.064Z,21.97
2023-05-05T21:03:49.408Z,21.95
2023-05-05T21:06:15.895Z,21.97
2023-05-05T21:08:42.330Z,21.96
2023-05-05T21:11:09.781Z,21.98
2023-05-05T21:13:36.325Z,21.97
2023-05-05T21:16:02.741Z,21.94
2023-05-05T21:18:29.106Z,21.91
2023-05-05T21:20:56.246Z,21.89
2023-05-05T21:23:22.843Z,21.88
2023-05-05T21:25:49.442Z,21.88
2023-05-05T21:28:15.967Z,21.90
2023-05-05T21:30:42.385Z,21.89
2023-05-05T21:33:08.796Z,21.90
2023-05-05T21:35:35.368Z,21.91
2023-05-05T21:38:01.751Z,21.90
2023-05-05T21:40:28.115Z,21.89
2023-05-05T21:42:54.444Z,21.89
2023-05-05T21:45:20.871Z,21.86
2023-05-05T21:47:47.232Z,21.87
2023-05-05T21:50:13.689Z,21.87
2023-05-05T21:52:40.241Z,21.86
2023-05-05T21:55:06.855Z,21.85
2023-05-05T21:57:33.261Z,21.86
2023-05-05T21:59:59.621Z,21.87
2023-05-05T22:02:26.024Z,21.84
2023-05-05T22:04:52.582Z,21.85
2023-05-05T22:07:19.099Z,21.87
2023-05-05T22:09:45.987Z,21.85
2023-05-05T22:12:12.910Z,21.82
2023-05-05T22:14:39.277Z,21.82
2023-05-05T22:17:05.677Z,21.82
2023-05-05T22:19:32.033Z,21.82
2023-05-05T22:21:58.881Z,21.80
2023-05-05T22:24:25.645Z,21.79
2023-05-05T22:26:52.299Z,21.79
2023-05-05T22:29:18.718Z,21.81
2023-05-05T22:31:45.143Z,21.83
2023-05-05T22:34:11.656Z,21.83
2023-05-05T22:36:38.027Z,21.83
2023-05-05T22:39:04.413Z,21.82
2023-05-05T22:41:30.766Z,21.82
2023-05-05T22:43:57.080Z,21.84
2023-05-05T22:46:23.471Z,21.84
2023-05-05T22:48:49.881Z,21.87
2023-05-05T22:51:16.629Z,21.83
2023-05-05T22:53:43.038Z,21.79
2023-05-05T22:56:09.364Z,21.80
2023-05-05T22:58:35.798Z,21.81
2023-05-05T23:01:02.272Z,21.83
2023-05-05T23:03:28.750Z,21.83
2023-05-05T23:05:55.095Z,21.83
2023-05-05T23:08:21.666Z,21.81
2023-05-05T23:10:48.045Z,21.80
2023-05-05T23:13:14.467Z,21.80
2023-05-05T23:15:41.224Z,21.78
2023-05-05T23:18:07.682Z,21.77
2023-05-05T23:20:34.104Z,21.75
2023-05-05T23:23:00.835Z,21.76
2023-05-05T23:25:27.241Z,21.80
2023-05-05T23:27:53.687Z,21.80
2023-05-05T23:30:20.194Z,21.81
2023-05-05T23:32:46.797Z,21.80
2023-05-05T23:35:13.251Z,21.79
2023-05-05T23:37:39.623Z,21.77
2023-05-05T23:40:06.885Z,21.78
2023-05-05T23:42:33.255Z,21.77
2023-05-05T23:44:59.660Z,21.79
2023-05-05T23:47:26.054Z,21.79
2023-05-05T23:49:52.483Z,21.79
2023-05-05T23:52:18.892Z,21.77
2023-05-05T23:54:45.591Z,21.79
2023-05-05T23:57:11.953Z,21.77
2023-05-05T23:59:39.057Z,21.75
